Time;durP1;ratioP1;P1;durP2;ratioP2;P2;SDS_P1;SDS_P2;PMS_P1;PMS_P2;Temp;Humidity;BMP_temperature;BMP_pressure;BME280_temperature;BME280_humidity;BME280_pressure;Samples;Min_cycle;Max_cycle;Signal;HPM_P1;HPM_P2
2023/04/05 00:00:42;;;;;;;5.10;2.50;;;;;;;;;;5075588;28;20020;-68
2023/04/05 00:03:08;;;;;;;4.93;2.47;;;;;;;;;;5075093;28;20051;-68
2023/04/05 00:05:35;;;;;;;5.23;2.63;;;;;;;;;;5075182;28;20043;-68
2023/04/05 00:08:02;;;;;;;8.57;2.43;;;;;;;;;;5075276;28;20055;-68
2023/04/05 00:10:28;;;;;;;5.47;2.50;;;;;;;;;;5075453;28;20103;-68
2023/04/05 00:12:55;;;;;;;4.70;2.50;;;;;;;;;;5075354;28;20040;-68
2023/04/05 00:15:21;;;;;;;6.83;2.90;;;;;;;;;;5075423;28;20020;-67
2023/04/05 00:17:48;;;;;;;4.77;2.57;;;;;;;;;;5075101;28;20040;-68
2023/04/05 00:20:14;;;;;;;4.77;2.70;;;;;;;;;;5075081;28;20063;-68
2023/04/05 00:22:43;;;;;;;5.87;2.30;;;;;;;;;;5075079;28;20029;-68
2023/04/05 00:25:09;;;;;;;6.37;2.80;;;;;;;;;;5075136;28;20046;-68
2023/04/05 00:27:35;;;;;;;4.27;2.40;;;;;;;;;;5075003;28;20449;-68
2023/04/05 00:30:01;;;;;;;4.03;2.50;;;;;;;;;;5074798;28;20071;-68
2023/04/05 00:32:28;;;;;;;5.47;2.90;;;;;;;;;;5074834;28;20028;-68
2023/04/05 00:34:54;;;;;;;5.63;3.07;;;;;;;;;;5073694;28;20036;-68
2023/04/05 00:37:21;;;;;;;4.73;2.73;;;;;;;;;;5074597;28;20037;-68
2023/04/05 00:39:47;;;;;;;4.70;2.63;;;;;;;;;;5074893;28;20020;-68
2023/04/05 00:42:14;;;;;;;7.17;2.67;;;;;;;;;;5074630;28;20039;-68
2023/04/05 00:44:40;;;;;;;4.20;2.30;;;;;;;;;;5074871;28;20510;-68
2023/04/05 00:47:07;;;;;;;3.97;2.30;;;;;;;;;;5074719;28;20158;-68
2023/04/05 00:49:34;;;;;;;4.83;2.80;;;;;;;;;;5074309;28;20093;-68
2023/04/05 00:52:01;;;;;;;6.57;2.57;;;;;;;;;;5074754;28;20075;-68
2023/04/05 00:54:28;;;;;;;7.17;3.10;;;;;;;;;;5074477;28;20056;-68
2023/04/05 00:56:58;;;;;;;3.57;2.17;;;;;;;;;;5074442;28;20036;-68
2023/04/05 00:59:25;;;;;;;6.67;2.90;;;;;;;;;;5071528;28;20025;-68
2023/04/05 01:02:12;;;;;;;5.70;2.57;;;;;;;;;;5071529;28;20033;-69
2023/04/05 01:04:40;;;;;;;7.63;2.90;;;;;;;;;;5072687;28;20027;-68
2023/04/05 01:07:18;;;;;;;5.77;2.80;;;;;;;;;;5074016;28;20020;-68
2023/04/05 01:09:44;;;;;;;5.13;2.77;;;;;;;;;;5074313;28;20136;-68
2023/04/05 01:12:16;;;;;;;5.70;2.33;;;;;;;;;;5073704;28;20441;-68
2023/04/05 01:14:45;;;;;;;4.33;2.23;;;;;;;;;;5073890;28;20028;-68
2023/04/05 01:17:11;;;;;;;4.63;2.70;;;;;;;;;;5074025;28;20115;-68
2023/04/05 01:19:40;;;;;;;5.50;2.73;;;;;;;;;;5073933;28;20028;-68
2023/04/05 01:22:12;;;;;;;6.40;2.50;;;;;;;;;;5073723;28;20099;-68
2023/04/05 01:24:38;;;;;;;3.83;2.40;;;;;;;;;;5073911;28;20024;-69
2023/04/05 01:27:10;;;;;;;5.83;2.57;;;;;;;;;;5073726;28;20096;-68
2023/04/05 01:29:39;;;;;;;4.27;2.10;;;;;;;;;;5072265;28;20028;-68
2023/04/05 01:32:40;;;;;;;4.50;2.63;;;;;;;;;;5073598;28;20052;-68
2023/04/05 01:35:22;;;;;;;5.87;2.80;;;;;;;;;;4991805;28;20030;-68
2023/04/05 01:37:49;;;;;;;4.53;2.80;;;;;;;;;;5065446;28;20123;-68
2023/04/05 01:40:15;;;;;;;5.17;2.63;;;;;;;;;;5073463;28;20035;-68
2023/04/05 01:42:43;;;;;;;5.77;3.03;;;;;;;;;;5073229;28;20059;-68
2023/04/05 01:45:10;;;;;;;4.67;2.50;;;;;;;;;;5073283;28;20048;-68
2023/04/05 01:47:36;;;;;;;6.03;2.80;;;;;;;;;;5073385;28;20035;-68
2023/04/05 01:50:02;;;;;;;4.80;2.27;;;;;;;;;;5073190;28;20098;-68
2023/04/05 01:52:28;;;;;;;5.23;2.77;;;;;;;;;;5073665;28;20024;-68
2023/04/05 01:54:54;;;;;;;5.47;2.60;;;;;;;;;;5073355;28;20099;-68
2023/04/05 01:57:20;;;;;;;4.93;2.37;;;;;;;;;;5072974;28;20043;-68
2023/04/05 01:59:46;;;;;;;6.13;2.80;;;;;;;;;;5073151;28;20032;-68
2023/04/05 02:02:12;;;;;;;6.70;2.97;;;;;;;;;;5073098;28;20024;-68
2023/04/05 02:04:38;;;;;;;5.00;2.77;;;;;;;;;;5072896;28;20539;-68
2023/04/05 02:07:04;;;;;;;3.43;2.53;;;;;;;;;;5073012;28;20074;-68
2023/04/05 02:09:30;;;;;;;5.07;2.43;;;;;;;;;;5072642;28;20519;-68
2023/04/05 02:11:56;;;;;;;5.60;3.03;;;;;;;;;;5073252;28;20031;-68
2023/04/05 02:14:24;;;;;;;7.73;2.80;;;;;;;;;;5072968;28;20020;-68
2023/04/05 02:16:52;;;;;;;6.73;3.07;;;;;;;;;;5073067;28;20043;-68
2023/04/05 02:19:21;;;;;;;9.07;3.53;;;;;;;;;;5072998;28;20410;-68
2023/04/05 02:21:48;;;;;;;6.90;3.17;;;;;;;;;;5073159;28;20046;-68
2023/04/05 02:24:14;;;;;;;4.80;2.60;;;;;;;;;;5072982;28;20021;-68
2023/04/05 02:26:40;;;;;;;5.57;2.67;;;;;;;;;;5072882;28;20021;-68
2023/04/05 02:29:06;;;;;;;5.70;3.00;;;;;;;;;;5072789;28;20020;-68
2023/04/05 02:31:32;;;;;;;5.67;2.93;;;;;;;;;;5072951;28;20122;-68
2023/04/05 02:33:59;;;;;;;8.57;3.30;;;;;;;;;;5072965;28;20377;-68
2023/04/05 02:36:28;;;;;;;11.23;2.70;;;;;;;;;;5072823;28;20012;-68
2023/04/05 02:38:55;;;;;;;6.17;2.57;;;;;;;;;;5072898;28;20468;-68
2023/04/05 02:41:22;;;;;;;8.43;2.83;;;;;;;;;;5072754;28;20093;-68
2023/04/05 02:43:49;;;;;;;7.50;3.00;;;;;;;;;;5072823;28;20027;-68
2023/04/05 02:46:15;;;;;;;5.93;3.00;;;;;;;;;;5072724;28;20017;-68
2023/04/05 02:48:42;;;;;;;4.30;2.70;;;;;;;;;;5072712;28;20032;-68
2023/04/05 02:51:08;;;;;;;5.83;3.10;;;;;;;;;;5072596;28;20037;-68
2023/04/05 02:53:34;;;;;;;5.33;2.90;;;;;;;;;;5072502;28;20025;-68
2023/04/05 02:56:00;;;;;;;7.10;3.00;;;;;;;;;;5072683;28;20106;-68
2023/04/05 02:58:27;;;;;;;6.00;3.13;;;;;;;;;;5072455;28;20170;-68
2023/04/05 03:00:55;;;;;;;5.70;2.90;;;;;;;;;;5072814;28;20020;-68
2023/04/05 03:03:21;;;;;;;5.27;2.70;;;;;;;;;;5072522;28;20017;-68
2023/04/05 03:05:48;;;;;;;4.57;2.47;;;;;;;;;;5072561;28;20028;-68
2023/04/05 03:08:18;;;;;;;7.77;3.30;;;;;;;;;;5072553;28;20055;-68
2023/04/05 03:10:47;;;;;;;6.90;2.87;;;;;;;;;;5072464;28;20379;-68
2023/04/05 03:13:14;;;;;;;9.70;3.53;;;;;;;;;;5072211;28;20040;-68
2023/04/05 03:15:41;;;;;;;6.17;3.20;;;;;;;;;;5072212;28;20025;-68
2023/04/05 03:18:07;;;;;;;6.10;3.10;;;;;;;;;;5072047;28;20064;-68
2023/04/05 03:20:40;;;;;;;6.43;3.30;;;;;;;;;;5070843;28;20380;-68
2023/04/05 03:23:09;;;;;;;6.13;2.93;;;;;;;;;;5075549;28;20031;-68
2023/04/05 03:25:36;;;;;;;9.50;3.23;;;;;;;;;;5075757;28;20017;-68
2023/04/05 03:28:07;;;;;;;10.07;3.63;;;;;;;;;;5074720;28;20035;-68
2023/04/05 03:30:33;;;;;;;7.63;3.10;;;;;;;;;;5076395;28;20372;-68
2023/04/05 03:33:03;;;;;;;5.53;3.10;;;;;;;;;;5076021;28;20444;-68
2023/04/05 03:35:29;;;;;;;8.53;3.20;;;;;;;;;;5075859;28;20107;-68
2023/04/05 03:37:56;;;;;;;6.87;3.23;;;;;;;;;;5075802;28;20068;-68
2023/04/05 03:40:23;;;;;;;7.83;3.37;;;;;;;;;;5075923;28;20501;-68
2023/04/05 03:42:49;;;;;;;5.90;3.40;;;;;;;;;;5075839;28;20029;-68
2023/04/05 03:45:15;;;;;;;6.30;3.20;;;;;;;;;;5075920;28;20028;-68
2023/04/05 03:47:42;;;;;;;7.30;3.40;;;;;;;;;;5074701;28;20079;-68
2023/04/05 03:50:08;;;;;;;6.97;3.50;;;;;;;;;;5075635;28;20492;-67
2023/04/05 03:52:34;;;;;;;6.73;3.43;;;;;;;;;;5075684;28;20158;-68
2023/04/05 03:55:00;;;;;;;4.70;3.10;;;;;;;;;;5075663;28;20029;-68
2023/04/05 03:57:29;;;;;;;9.37;3.53;;;;;;;;;;5075373;28;20052;-68
2023/04/05 03:59:56;;;;;;;7.20;3.87;;;;;;;;;;5075603;28;20488;-68
2023/04/05 04:02:22;;;;;;;7.57;3.50;;;;;;;;;;5075359;28;20024;-68
2023/04/05 04:04:48;;;;;;;5.33;3.30;;;;;;;;;;5074982;28;20074;-68
2023/04/05 04:07:14;;;;;;;6.13;3.17;;;;;;;;;;5075411;28;20532;-71
2023/04/05 04:09:40;;;;;;;8.30;3.40;;;;;;;;;;5075458;28;20031;-70
2023/04/05 04:12:06;;;;;;;7.27;3.00;;;;;;;;;;5075343;28;20021;-68
2023/04/05 04:14:34;;;;;;;10.33;4.60;;;;;;;;;;5075372;28;20050;-68
2023/04/05 04:17:00;;;;;;;6.73;3.23;;;;;;;;;;5075167;28;20384;-68
2023/04/05 04:19:26;;;;;;;8.60;3.40;;;;;;;;;;5075042;28;20017;-68
2023/04/05 04:21:54;;;;;;;8.70;3.90;;;;;;;;;;5075097;28;20024;-68
2023/04/05 04:24:21;;;;;;;9.87;3.50;;;;;;;;;;5075146;28;20074;-68
2023/04/05 04:26:47;;;;;;;8.97;4.03;;;;;;;;;;5075112;28;20035;-68
2023/04/05 04:29:16;;;;;;;6.33;3.30;;;;;;;;;;5073545;28;20396;-68
2023/04/05 04:31:48;;;;;;;6.23;3.50;;;;;;;;;;5074719;28;20032;-68
2023/04/05 04:34:17;;;;;;;5.60;3.13;;;;;;;;;;5074770;28;20376;-68
2023/04/05 04:36:47;;;;;;;7.23;3.77;;;;;;;;;;5075022;28;20029;-69
2023/04/05 04:39:13;;;;;;;5.10;3.10;;;;;;;;;;5074867;28;20034;-69
2023/04/05 04:41:45;;;;;;;7.77;4.10;;;;;;;;;;5074816;28;20480;-68
2023/04/05 04:44:13;;;;;;;;;;;;;;;;;;5075166;28;20029;-68
2023/04/05 04:46:42;;;;;;;10.47;3.77;;;;;;;;;;5074736;28;20352;-69
2023/04/05 04:49:09;;;;;;;11.10;4.13;;;;;;;;;;5074544;28;20093;-68
2023/04/05 04:51:38;;;;;;;8.67;3.60;;;;;;;;;;5074581;28;20115;-68
2023/04/05 04:54:05;;;;;;;8.57;4.23;;;;;;;;;;5074483;28;20029;-68
2023/04/05 04:56:31;;;;;;;9.50;3.80;;;;;;;;;;5074403;28;20381;-67
2023/04/05 04:58:57;;;;;;;12.27;4.33;;;;;;;;;;5074264;28;20021;-68
2023/04/05 05:01:23;;;;;;;13.13;3.83;;;;;;;;;;5074161;28;20507;-68
2023/04/05 05:03:50;;;;;;;8.10;3.77;;;;;;;;;;5074701;28;20016;-69
2023/04/05 05:06:18;;;;;;;7.57;3.57;;;;;;;;;;5074310;28;20024;-68
2023/04/05 05:08:46;;;;;;;6.27;3.77;;;;;;;;;;5073912;28;20025;-68
2023/04/05 05:11:12;;;;;;;8.50;3.77;;;;;;;;;;5074156;28;20032;-68
2023/04/05 05:13:38;;;;;;;8.17;4.03;;;;;;;;;;5074157;28;20021;-69
2023/04/05 05:16:04;;;;;;;10.23;3.80;;;;;;;;;;5073809;28;20028;-68
2023/04/05 05:18:30;;;;;;;8.13;4.03;;;;;;;;;;5073985;28;20515;-69
2023/04/05 05:20:56;;;;;;;11.60;4.67;;;;;;;;;;5073898;28;20017;-68
2023/04/05 05:23:22;;;;;;;6.13;3.80;;;;;;;;;;5073636;28;20031;-69
2023/04/05 05:25:48;;;;;;;7.77;3.70;;;;;;;;;;5073528;28;20431;-68
2023/04/05 05:28:15;;;;;;;7.37;3.83;;;;;;;;;;5073372;28;20035;-68
2023/04/05 05:30:41;;;;;;;7.80;3.87;;;;;;;;;;5072803;28;20017;-69
2023/04/05 05:33:07;;;;;;;10.07;4.30;;;;;;;;;;5073306;28;20436;-69
2023/04/05 05:35:33;;;;;;;7.77;4.00;;;;;;;;;;5073358;28;20376;-68
2023/04/05 05:38:01;;;;;;;10.63;3.80;;;;;;;;;;5073586;28;20064;-68
2023/04/05 05:40:27;;;;;;;6.60;3.63;;;;;;;;;;5073410;28;20461;-69
2023/04/05 05:42:53;;;;;;;8.33;4.00;;;;;;;;;;5073285;28;20067;-68
2023/04/05 05:45:19;;;;;;;9.13;3.70;;;;;;;;;;5072649;28;20052;-68
2023/04/05 05:47:45;;;;;;;11.13;4.00;;;;;;;;;;5073002;28;20107;-68
2023/04/05 05:50:12;;;;;;;8.43;4.33;;;;;;;;;;5072655;28;20412;-68
2023/04/05 05:52:38;;;;;;;7.97;3.97;;;;;;;;;;5073193;28;20032;-68
2023/04/05 05:55:04;;;;;;;9.17;4.07;;;;;;;;;;5073177;28;20024;-68
2023/04/05 05:57:30;;;;;;;8.73;4.00;;;;;;;;;;5071985;28;20036;-68
2023/04/05 05:59:56;;;;;;;12.00;4.40;;;;;;;;;;5073332;28;20028;-67
2023/04/05 06:02:22;;;;;;;7.37;3.90;;;;;;;;;;5073374;28;20028;-67
2023/04/05 06:04:49;;;;;;;8.83;4.10;;;;;;;;;;5073212;28;20028;-67
2023/04/05 06:07:15;;;;;;;6.50;3.60;;;;;;;;;;5072663;28;20025;-67
2023/04/05 06:09:44;;;;;;;10.63;3.70;;;;;;;;;;5072923;28;20538;-67
2023/04/05 06:12:10;;;;;;;9.87;3.93;;;;;;;;;;5073131;28;20107;-67
2023/04/05 06:14:36;;;;;;;7.90;4.17;;;;;;;;;;5073029;28;20473;-67
2023/04/05 06:17:02;;;;;;;6.37;4.37;;;;;;;;;;5072941;28;20043;-67
2023/04/05 06:19:28;;;;;;;17.70;4.50;;;;;;;;;;5073028;28;20107;-67
2023/04/05 06:21:54;;;;;;;7.70;4.70;;;;;;;;;;5073018;28;20048;-67
2023/04/05 06:24:20;;;;;;;8.87;4.20;;;;;;;;;;5072886;28;20056;-68
2023/04/05 06:26:46;;;;;;;6.60;3.60;;;;;;;;;;5072840;28;20036;-68
2023/04/05 06:29:12;;;;;;;5.20;3.33;;;;;;;;;;5072728;28;20385;-68
2023/04/05 06:31:40;;;;;;;9.77;4.10;;;;;;;;;;5072583;28;20029;-68
2023/04/05 06:34:06;;;;;;;9.37;4.00;;;;;;;;;;5072585;28;20020;-67
2023/04/05 06:36:32;;;;;;;9.87;4.00;;;;;;;;;;5072602;28;20040;-67
2023/04/05 06:38:59;;;;;;;8.00;4.13;;;;;;;;;;5072779;28;20024;-68
2023/04/05 06:41:26;;;;;;;13.00;4.37;;;;;;;;;;5072485;28;20033;-68
2023/04/05 06:43:52;;;;;;;8.83;4.27;;;;;;;;;;5072987;28;20020;-74
2023/04/05 06:46:18;;;;;;;10.50;4.07;;;;;;;;;;5072842;28;20027;-68
2023/04/05 06:48:46;;;;;;;9.97;3.90;;;;;;;;;;5072493;28;20020;-68
2023/04/05 06:51:12;;;;;;;10.90;3.93;;;;;;;;;;5072404;28;20043;-69
2023/04/05 06:53:38;;;;;;;5.77;3.60;;;;;;;;;;5072720;28;20021;-69
2023/04/05 06:56:04;;;;;;;13.20;4.13;;;;;;;;;;5074538;28;20021;-68
2023/04/05 06:58:31;;;;;;;8.37;3.50;;;;;;;;;;5076771;28;20028;-68
2023/04/05 07:00:57;;;;;;;8.60;3.87;;;;;;;;;;5076661;28;20047;-69
2023/04/05 07:03:23;;;;;;;8.40;4.00;;;;;;;;;;5076788;28;20047;-68
2023/04/05 07:05:57;;;;;;;8.33;3.70;;;;;;;;;;5076742;28;20538;-68
2023/04/05 07:08:24;;;;;;;9.17;3.97;;;;;;;;;;5076408;28;20029;-68
2023/04/05 07:10:50;;;;;;;11.10;3.93;;;;;;;;;;5076407;28;20032;-69
2023/04/05 07:13:17;;;;;;;8.50;3.77;;;;;;;;;;5076391;28;20484;-69
2023/04/05 07:15:46;;;;;;;6.07;3.50;;;;;;;;;;5076543;28;20033;-69
2023/04/05 07:18:14;;;;;;;7.83;3.97;;;;;;;;;;5075405;28;20495;-69
2023/04/05 07:20:40;;;;;;;8.50;3.80;;;;;;;;;;5076741;28;20055;-69
2023/04/05 07:23:06;;;;;;;6.43;3.97;;;;;;;;;;5077194;28;20032;-69
2023/04/05 07:25:33;;;;;;;11.93;4.00;;;;;;;;;;5077124;28;20040;-71
2023/04/05 07:27:59;;;;;;;7.47;3.63;;;;;;;;;;5076279;28;20021;-69
2023/04/05 07:30:26;;;;;;;9.33;3.83;;;;;;;;;;5076122;28;20033;-69
2023/04/05 07:32:52;;;;;;;8.63;3.87;;;;;;;;;;5076034;28;20029;-70
2023/04/05 07:35:18;;;;;;;7.90;3.77;;;;;;;;;;5075835;28;20032;-69
2023/04/05 07:37:44;;;;;;;8.03;4.20;;;;;;;;;;5075714;28;20068;-70
2023/04/05 07:40:11;;;;;;;6.93;3.60;;;;;;;;;;5075928;28;20487;-69
2023/04/05 07:42:37;;;;;;;8.57;3.73;;;;;;;;;;5075939;28;20103;-70
2023/04/05 07:45:03;;;;;;;7.33;3.60;;;;;;;;;;5075829;28;20043;-70
2023/04/05 07:47:29;;;;;;;8.10;3.70;;;;;;;;;;5075787;28;20512;-70
2023/04/05 07:49:56;;;;;;;7.83;3.67;;;;;;;;;;5075640;28;20519;-70
2023/04/05 07:52:22;;;;;;;7.30;3.87;;;;;;;;;;5075616;28;20024;-70
2023/04/05 07:54:48;;;;;;;6.60;3.83;;;;;;;;;;5075632;28;20381;-69
2023/04/05 07:57:18;;;;;;;8.30;3.47;;;;;;;;;;5075609;28;20505;-70
2023/04/05 07:59:44;;;;;;;7.17;3.77;;;;;;;;;;5075640;28;20125;-70
2023/04/05 08:02:11;;;;;;;8.00;3.80;;;;;;;;;;5075672;28;20031;-70
2023/04/05 08:04:37;;;;;;;7.93;3.93;;;;;;;;;;5075371;28;20024;-70
2023/04/05 08:07:03;;;;;;;9.17;3.80;;;;;;;;;;5074748;28;20036;-70
2023/04/05 08:09:29;;;;;;;6.93;3.80;;;;;;;;;;5075467;28;20052;-71
2023/04/05 08:11:56;;;;;;;8.60;3.63;;;;;;;;;;5075363;28;20078;-70
2023/04/05 08:14:22;;;;;;;7.30;3.80;;;;;;;;;;5075110;28;20035;-69
2023/04/05 08:16:49;;;;;;;6.33;4.03;;;;;;;;;;5075375;28;20037;-70
2023/04/05 08:19:16;;;;;;;7.27;3.60;;;;;;;;;;5075247;28;20128;-69
2023/04/05 08:21:42;;;;;;;8.87;3.60;;;;;;;;;;5075327;28;20519;-70
2023/04/05 08:24:08;;;;;;;6.20;3.87;;;;;;;;;;5075150;28;20032;-70
2023/04/05 08:26:34;;;;;;;6.80;3.60;;;;;;;;;;5075037;28;20548;-70
2023/04/05 08:29:00;;;;;;;9.07;3.47;;;;;;;;;;5075246;28;20495;-69
2023/04/05 08:31:27;;;;;;;7.43;3.63;;;;;;;;;;5075250;28;20015;-69
2023/04/05 08:33:53;;;;;;;7.03;3.53;;;;;;;;;;5075117;28;20115;-69
2023/04/05 08:36:19;;;;;;;8.20;3.50;;;;;;;;;;5075021;28;20070;-70
2023/04/05 08:38:45;;;;;;;9.50;3.67;;;;;;;;;;5075087;28;20099;-70
2023/04/05 08:41:11;;;;;;;8.13;3.63;;;;;;;;;;5074791;28;20016;-69
2023/04/05 08:43:37;;;;;;;10.50;3.97;;;;;;;;;;5074851;28;20073;-69
2023/04/05 08:46:08;;;;;;;11.90;3.70;;;;;;;;;;5074660;28;20070;-69
2023/04/05 08:48:38;;;;;;;5.37;3.33;;;;;;;;;;5074697;28;20035;-69
2023/04/05 08:51:05;;;;;;;7.43;3.70;;;;;;;;;;5074389;28;20392;-70
2023/04/05 08:53:32;;;;;;;7.83;4.30;;;;;;;;;;5074670;28;20380;-70
2023/04/05 08:56:00;;;;;;;7.20;3.63;;;;;;;;;;5074463;28;20499;-70
2023/04/05 08:58:26;;;;;;;6.77;3.20;;;;;;;;;;5074377;28;20036;-70
2023/04/05 09:00:53;;;;;;;7.73;3.03;;;;;;;;;;5072044;28;20016;-69
2023/04/05 09:03:23;;;;;;;13.33;3.70;;;;;;;;;;5073578;28;20032;-69
2023/04/05 09:05:50;;;;;;;6.77;3.40;;;;;;;;;;5073469;28;20035;-70
2023/04/05 09:08:17;;;;;;;9.97;3.37;;;;;;;;;;5073921;28;20032;-69
2023/04/05 09:10:43;;;;;;;11.50;3.80;;;;;;;;;;5073750;28;20107;-69
2023/04/05 09:13:09;;;;;;;7.17;3.43;;;;;;;;;;5073631;28;20028;-69
2023/04/05 09:15:36;;;;;;;5.83;2.83;;;;;;;;;;5073099;28;20468;-69
2023/04/05 09:18:02;;;;;;;6.30;3.07;;;;;;;;;;5073258;28;20040;-69
2023/04/05 09:20:28;;;;;;;10.03;3.30;;;;;;;;;;5071633;28;20036;-70
2023/04/05 09:22:56;;;;;;;7.33;3.30;;;;;;;;;;5071959;28;20059;-70
2023/04/05 09:25:31;;;;;;;5.13;3.03;;;;;;;;;;5073797;28;20100;-70
2023/04/05 09:27:57;;;;;;;7.33;3.83;;;;;;;;;;5073211;28;20024;-69
2023/04/05 09:30:24;;;;;;;6.70;3.33;;;;;;;;;;5071844;28;20029;-69
2023/04/05 09:32:54;;;;;;;5.37;3.13;;;;;;;;;;5072377;28;20025;-69
2023/04/05 09:35:30;;;;;;;4.97;3.03;;;;;;;;;;5073157;28;20382;-69
2023/04/05 09:37:58;;;;;;;5.40;3.00;;;;;;;;;;5072629;28;20036;-70
2023/04/05 09:40:40;;;;;;;5.63;3.40;;;;;;;;;;5072962;28;20143;-70
2023/04/05 09:43:06;;;;;;;9.93;3.42;;;;;;;;;;5073304;28;20052;-68
2023/04/05 09:45:37;;;;;;;8.23;3.33;;;;;;;;;;5073046;28;20021;-69
2023/04/05 09:48:03;;;;;;;6.70;3.37;;;;;;;;;;5072512;28;20103;-69
2023/04/05 09:50:30;;;;;;;12.50;3.37;;;;;;;;;;5073028;28;20190;-69
2023/04/05 09:53:06;;;;;;;5.63;3.13;;;;;;;;;;5073291;28;20094;-69
2023/04/05 09:55:33;;;;;;;6.30;3.37;;;;;;;;;;5071859;28;20411;-69
2023/04/05 09:57:59;;;;;;;8.37;3.10;;;;;;;;;;5073245;28;20480;-69
2023/04/05 10:00:25;;;;;;;12.40;3.50;;;;;;;;;;5073144;28;20103;-69
2023/04/05 10:02:53;;;;;;;6.77;3.27;;;;;;;;;;5072342;28;20469;-70
2023/04/05 10:05:21;;;;;;;7.37;3.13;;;;;;;;;;5072481;28;20031;-69
2023/04/05 10:07:47;;;;;;;5.60;2.93;;;;;;;;;;5072309;28;20107;-69
2023/04/05 10:10:15;;;;;;;9.27;3.60;;;;;;;;;;5072752;28;20532;-70
2023/04/05 10:12:41;;;;;;;5.73;3.07;;;;;;;;;;5073151;28;20024;-69
2023/04/05 10:15:08;;;;;;;4.80;2.97;;;;;;;;;;5072889;28;20024;-69
2023/04/05 10:17:38;;;;;;;5.67;3.00;;;;;;;;;;5072850;28;20032;-69
2023/04/05 10:20:23;;;;;;;6.93;3.67;;;;;;;;;;5072500;28;20100;-67
2023/04/05 11:03:32;;;;;;;6.93;3.23;;;;;;;;;;6254135;23;20322;-69
2023/04/05 11:06:17;;;;;;;6.10;3.43;;;;;;;;;;6254310;23;20027;-67
2023/04/05 11:08:45;;;;;;;9.10;3.30;;;;;;;;;;6254402;23;20075;-67
2023/04/05 11:11:13;;;;;;;7.53;3.25;;;;;;;;;;6254345;23;20070;-67
2023/04/05 11:13:58;;;;;;;15.10;3.63;;;;;;;;;;6254440;23;20004;-68
2023/04/05 11:16:37;;;;;;;18.87;3.70;;;;;;;;;;6254244;23;20008;-67
2023/04/05 11:19:03;;;;;;;14.55;3.30;;;;;;;;;;6253988;23;20035;-67
2023/04/05 11:21:30;;;;;;;12.07;3.67;;;;;;;;;;6254377;23;20000;-67
2023/04/05 11:24:12;;;;;;;6.53;3.65;;;;;;;;;;6254176;23;20004;-67
2023/04/05 11:26:41;;;;;;;5.90;3.47;;;;;;;;;;6254273;23;20024;-66
2023/04/05 11:29:07;;;;;;;9.93;3.45;;;;;;;;;;6253939;23;20000;-69
2023/04/05 11:31:33;;;;;;;9.25;3.67;;;;;;;;;;6254088;23;20000;-68
2023/04/05 11:34:08;;;;;;;7.30;3.58;;;;;;;;;;6253699;23;20007;-67
2023/04/05 11:36:35;;;;;;;4.82;3.03;;;;;;;;;;6227399;23;20000;-68
2023/04/05 11:39:20;;;;;;;8.13;3.78;;;;;;;;;;6253450;23;20320;-67
2023/04/05 11:41:47;;;;;;;5.82;3.70;;;;;;;;;;6253513;23;20091;-68
2023/04/05 11:44:16;;;;;;;5.80;3.22;;;;;;;;;;6253653;23;20007;-68
2023/04/05 11:46:42;;;;;;;5.57;3.35;;;;;;;;;;6254221;23;20006;-68
2023/04/05 11:49:09;;;;;;;7.10;3.63;;;;;;;;;;6253256;23;20004;-68
2023/04/05 11:51:35;;;;;;;7.60;3.70;;;;;;;;;;6253722;23;19996;-67
2023/04/05 11:54:01;;;;;;;6.68;3.50;;;;;;;;;;6253332;23;20050;-68
2023/04/05 11:56:27;;;;;;;9.80;3.53;;;;;;;;;;6249818;23;20079;-67
2023/04/05 11:58:57;;;;;;;10.48;3.65;;;;;;;;;;6250343;23;20012;-68
2023/04/05 12:01:23;;;;;;;8.00;3.90;;;;;;;;;;6245493;23;20012;-67
2023/04/05 12:03:53;;;;;;;6.53;3.47;;;;;;;;;;6246652;23;20071;-67
2023/04/05 12:06:21;;;;;;;7.85;3.97;;;;;;;;;;6245399;23;20004;-67
2023/04/05 12:08:51;;;;;;;5.57;3.25;;;;;;;;;;6243275;23;20070;-68
2023/04/05 12:11:24;;;;;;;6.97;3.67;;;;;;;;;;6244050;23;20034;-68
2023/04/05 12:13:55;;;;;;;4.35;3.13;;;;;;;;;;6246477;23;20003;-68
2023/04/05 12:16:21;;;;;;;6.93;3.80;;;;;;;;;;6246539;23;20000;-67
2023/04/05 12:18:59;;;;;;;7.43;3.72;;;;;;;;;;6246505;23;20496;-67
2023/04/05 12:21:26;;;;;;;4.75;3.35;;;;;;;;;;6246390;23;20000;-68
2023/04/05 12:23:53;;;;;;;8.48;3.80;;;;;;;;;;6246718;23;20011;-68
2023/04/05 12:26:21;;;;;;;9.20;4.78;;;;;;;;;;6246709;23;20001;-68
2023/04/05 12:28:54;;;;;;;6.82;3.92;;;;;;;;;;6246817;23;20004;-68
2023/04/05 12:31:41;;;;;;;9.07;3.67;;;;;;;;;;6246555;23;20442;-67
2023/04/05 12:34:08;;;;;;;8.00;3.50;;;;;;;;;;6245420;23;20004;-67
2023/04/05 12:36:34;;;;;;;7.50;3.70;;;;;;;;;;6246673;23;20012;-68
2023/04/05 12:39:01;;;;;;;9.55;3.42;;;;;;;;;;6246790;23;20015;-67
2023/04/05 12:41:30;;;;;;;6.28;3.70;;;;;;;;;;6246641;23;20075;-67
2023/04/05 12:44:04;;;;;;;8.15;3.50;;;;;;;;;;6246391;23;20004;-67
2023/04/05 12:46:43;;;;;;;6.93;3.90;;;;;;;;;;6246745;23;20054;-67
2023/04/05 12:49:10;;;;;;;7.80;3.67;;;;;;;;;;6246637;23;20000;-67
2023/04/05 12:51:37;;;;;;;6.88;3.60;;;;;;;;;;6246621;23;20000;-68
2023/04/05 12:54:03;;;;;;;6.88;3.50;;;;;;;;;;6246623;23;20012;-68
2023/04/05 12:56:29;;;;;;;5.35;3.47;;;;;;;;;;6246543;23;20024;-68
2023/04/05 12:58:55;;;;;;;6.63;3.85;;;;;;;;;;6246224;23;20009;-67
2023/04/05 13:01:21;;;;;;;7.15;3.72;;;;;;;;;;6246181;23;20039;-68
2023/04/05 13:03:48;;;;;;;7.00;3.70;;;;;;;;;;6246630;23;20004;-67
2023/04/05 13:06:14;;;;;;;5.75;3.53;;;;;;;;;;6246452;23;20007;-67
2023/04/05 13:08:40;;;;;;;8.10;3.63;;;;;;;;;;6246520;23;20071;-67
2023/04/05 13:11:06;;;;;;;6.50;3.53;;;;;;;;;;6246164;23;20004;-67
2023/04/05 13:13:33;;;;;;;5.53;3.38;;;;;;;;;;6245766;23;20024;-67
2023/04/05 13:15:59;;;;;;;7.75;3.60;;;;;;;;;;6246335;23;20000;-67
2023/04/05 13:18:25;;;;;;;7.18;3.50;;;;;;;;;;6245998;23;20000;-67
2023/04/05 13:20:51;;;;;;;10.75;3.60;;;;;;;;;;6245770;23;20000;-67
2023/04/05 13:23:17;;;;;;;5.88;3.25;;;;;;;;;;6245776;23;20020;-67
2023/04/05 13:25:46;;;;;;;6.93;3.42;;;;;;;;;;6246080;23;20079;-67
2023/04/05 13:28:13;;;;;;;6.82;4.22;;;;;;;;;;6245616;23;20011;-67
2023/04/05 13:30:39;;;;;;;6.32;3.47;;;;;;;;;;6245527;23;20331;-67
2023/04/05 13:33:05;;;;;;;5.72;3.45;;;;;;;;;;6245357;23;20004;-67
2023/04/05 13:35:31;;;;;;;8.35;3.50;;;;;;;;;;6243131;23;20008;-68
2023/04/05 13:37:57;;;;;;;8.05;3.72;;;;;;;;;;6241543;23;20074;-70
2023/04/05 13:40:23;;;;;;;7.00;3.10;;;;;;;;;;6245698;23;20031;-68
2023/04/05 13:42:49;;;;;;;5.78;3.38;;;;;;;;;;6245406;23;20023;-67
2023/04/05 13:45:15;;;;;;;9.07;3.63;;;;;;;;;;6245768;23;20032;-67
2023/04/05 13:47:42;;;;;;;6.32;3.53;;;;;;;;;;6245627;23;20000;-66
2023/04/05 13:50:08;;;;;;;12.20;4.18;;;;;;;;;;6244863;23;20003;-65
2023/04/05 13:52:34;;;;;;;8.38;3.92;;;;;;;;;;6245323;23;20007;-65
2023/04/05 13:55:00;;;;;;;5.03;3.50;;;;;;;;;;6245684;23;20339;-65
2023/04/05 13:57:26;;;;;;;33.67;4.53;;;;;;;;;;6245608;23;20435;-65
2023/04/05 13:59:52;;;;;;;8.35;3.88;;;;;;;;;;6245604;23;20019;-65
2023/04/05 14:02:24;;;;;;;4.72;3.22;;;;;;;;;;6245451;23;20012;-66
2023/04/05 14:04:50;;;;;;;21.77;4.63;;;;;;;;;;6245713;23;20058;-65
2023/04/05 14:07:16;;;;;;;11.75;4.82;;;;;;;;;;6245377;23;19997;-65
2023/04/05 14:09:43;;;;;;;26.40;3.88;;;;;;;;;;6245106;23;20377;-65
2023/04/05 14:12:09;;;;;;;7.10;3.38;;;;;;;;;;6245590;23;20003;-66
2023/04/05 14:14:36;;;;;;;6.38;3.30;;;;;;;;;;6245780;23;20004;-65
2023/04/05 14:17:02;;;;;;;6.20;3.33;;;;;;;;;;6244994;23;20008;-66
2023/04/05 14:19:28;;;;;;;8.73;3.60;;;;;;;;;;6245701;23;20012;-66
2023/04/05 14:21:54;;;;;;;11.80;3.75;;;;;;;;;;6245610;23;20334;-66
2023/04/05 14:24:20;;;;;;;8.63;3.45;;;;;;;;;;6244988;23;20000;-66
2023/04/05 14:26:48;;;;;;;9.93;3.80;;;;;;;;;;6244659;23;20007;-66
2023/04/05 14:29:18;;;;;;;7.85;3.55;;;;;;;;;;6245479;23;20311;-67
2023/04/05 14:31:44;;;;;;;6.78;3.50;;;;;;;;;;6245293;23;20031;-66
2023/04/05 14:34:11;;;;;;;6.15;3.53;;;;;;;;;;6245651;23;20004;-66
2023/04/05 14:36:37;;;;;;;6.03;3.50;;;;;;;;;;6244684;23;20075;-65
2023/04/05 14:39:03;;;;;;;6.57;3.90;;;;;;;;;;6244548;23;20475;-65
2023/04/05 14:41:29;;;;;;;7.38;3.40;;;;;;;;;;6244597;23;20319;-65
2023/04/05 14:43:56;;;;;;;5.68;3.28;;;;;;;;;;6244982;23;20008;-65
2023/04/05 14:46:22;;;;;;;7.00;3.60;;;;;;;;;;6245060;23;20026;-66
2023/04/05 14:48:48;;;;;;;13.32;4.28;;;;;;;;;;6245295;23;20071;-65
2023/04/05 14:51:14;;;;;;;8.90;4.03;;;;;;;;;;6244723;23;20062;-65
2023/04/05 14:53:41;;;;;;;5.90;3.38;;;;;;;;;;6245676;23;20004;-65
2023/04/05 14:56:10;;;;;;;7.32;3.78;;;;;;;;;;6245307;23;20359;-65
2023/04/05 14:58:36;;;;;;;6.75;4.30;;;;;;;;;;6245456;23;20009;-66
2023/04/05 15:01:03;;;;;;;167.43;7.45;;;;;;;;;;6245350;22;20322;-64
2023/04/05 15:03:29;;;;;;;5.70;3.78;;;;;;;;;;6245659;23;20067;-66
2023/04/05 15:05:55;;;;;;;9.15;4.35;;;;;;;;;;6245509;23;20450;-66
2023/04/05 15:08:21;;;;;;;13.20;3.80;;;;;;;;;;6245538;23;20000;-65
2023/04/05 15:10:48;;;;;;;38.83;4.18;;;;;;;;;;6245121;23;20004;-66
2023/04/05 15:13:14;;;;;;;8.50;4.07;;;;;;;;;;6245555;23;20000;-65
2023/04/05 15:15:40;;;;;;;13.50;3.97;;;;;;;;;;6245267;23;20370;-66
2023/04/05 15:18:09;;;;;;;15.77;3.67;;;;;;;;;;6245315;23;20142;-65
2023/04/05 15:20:35;;;;;;;6.78;3.55;;;;;;;;;;6245500;23;20032;-66
2023/04/05 15:23:02;;;;;;;5.25;3.60;;;;;;;;;;6245273;23;20000;-65